Time;durP1;ratioP1;P1;durP2;ratioP2;P2;SDS_P1;SDS_P2;PMS_P1;PMS_P2;Temp;Humidity;BMP_temperature;BMP_pressure;BME280_temperature;BME280_humidity;BME280_pressure;Samples;Min_cycle;Max_cycle;Signal;HPM_P1;HPM_P2
2021/04/14 00:00:41;;;;;;;13.67;8.57;;;1.10;99.90;;;;;;5076159;28;20221;-80
2021/04/14 00:03:29;;;;;;;13.70;8.43;;;1.10;99.90;;;;;;5076363;28;20202;-82
2021/04/14 00:06:14;;;;;;;14.83;8.43;;;1.20;99.90;;;;;;5095226;28;20578;-83
2021/04/14 00:08:59;;;;;;;16.00;8.30;;;1.20;99.90;;;;;;5098108;28;20217;-81
2021/04/14 00:11:45;;;;;;;16.23;8.90;;;1.20;99.90;;;;;;5064716;28;20289;-81
2021/04/14 00:14:30;;;;;;;14.97;9.33;;;1.30;99.90;;;;;;5078646;28;20268;-81
2021/04/14 00:17:15;;;;;;;17.23;9.03;;;1.40;99.90;;;;;;5079810;28;20217;-82
2021/04/14 00:19:59;;;;;;;13.63;7.93;;;1.40;99.90;;;;;;5081923;28;20214;-82
2021/04/14 00:22:45;;;;;;;15.50;8.60;;;1.50;99.90;;;;;;5082084;28;20249;-81
2021/04/14 00:25:33;;;;;;;12.50;8.53;;;1.50;99.90;;;;;;5065925;28;20280;-81
2021/04/14 00:28:22;;;;;;;16.17;8.87;;;1.60;99.90;;;;;;5081086;28;20198;-83
2021/04/14 00:31:08;;;;;;;12.90;8.60;;;1.70;99.90;;;;;;5082589;28;20206;-82
2021/04/14 00:33:52;;;;;;;17.80;9.83;;;1.70;99.90;;;;;;5076368;28;20233;-84
2021/04/14 00:36:39;;;;;;;13.67;8.53;;;1.80;99.90;;;;;;5066863;28;20294;-81
2021/04/14 00:39:25;;;;;;;15.57;8.43;;;1.90;99.90;;;;;;5078323;28;20218;-82
2021/04/14 00:42:11;;;;;;;13.40;8.53;;;2.00;99.90;;;;;;5076942;28;20209;-82
2021/04/14 00:44:57;;;;;;;14.20;8.70;;;2.00;99.90;;;;;;5067239;28;20226;-81
2021/04/14 00:47:41;;;;;;;16.33;9.10;;;2.10;99.90;;;;;;5071308;28;20233;-81
2021/04/14 00:50:27;;;;;;;15.13;8.50;;;2.20;99.90;;;;;;5076596;28;20684;-83
2021/04/14 00:53:13;;;;;;;15.57;8.57;;;2.30;99.90;;;;;;5084651;28;20205;-81
2021/04/14 00:55:58;;;;;;;13.40;7.97;;;2.30;99.90;;;;;;5068431;28;20258;-83
2021/04/14 00:58:43;;;;;;;14.07;8.50;;;2.40;99.90;;;;;;5078100;28;20222;-78
2021/04/14 01:01:29;;;;;;;15.67;7.87;;;2.50;99.90;;;;;;5081012;28;20201;-80
2021/04/14 01:04:14;;;;;;;15.07;8.20;;;2.50;99.90;;;;;;5090469;28;20225;-81
2021/04/14 01:07:02;;;;;;;13.77;7.33;;;2.60;99.90;;;;;;5086783;28;20214;-81
2021/04/14 01:09:47;;;;;;;15.53;7.70;;;2.60;99.90;;;;;;5071924;28;20325;-81
2021/04/14 01:12:31;;;;;;;11.13;6.57;;;2.70;99.90;;;;;;5064333;28;20213;-81
2021/04/14 01:15:23;;;;;;;12.87;7.47;;;2.80;99.90;;;;;;5079099;28;20217;-80
2021/04/14 01:18:13;;;;;;;12.13;7.23;;;2.90;99.90;;;;;;5073613;28;20248;-80
2021/04/14 01:21:01;;;;;;;13.03;6.63;;;3.00;99.90;;;;;;5068411;28;20217;-81
2021/04/14 01:23:47;;;;;;;8.90;6.33;;;3.00;99.90;;;;;;5079523;28;20213;-80
2021/04/14 01:26:32;;;;;;;9.63;6.43;;;3.10;99.90;;;;;;5060895;28;20210;-81
2021/04/14 01:29:17;;;;;;;12.03;6.97;;;3.10;99.90;;;;;;5077079;28;20298;-81
2021/04/14 01:32:02;;;;;;;11.47;6.23;;;3.20;99.90;;;;;;5061110;28;20234;-81
2021/04/14 01:34:47;;;;;;;10.33;6.80;;;3.20;99.90;;;;;;5077030;28;20225;-81
2021/04/14 01:37:32;;;;;;;11.90;6.77;;;3.30;99.90;;;;;;5063065;28;20628;-80
2021/04/14 01:40:20;;;;;;;13.13;7.70;;;3.30;99.90;;;;;;5068785;28;20273;-80
2021/04/14 01:43:06;;;;;;;10.30;6.40;;;3.40;99.90;;;;;;5076074;28;20232;-80
2021/04/14 01:45:51;;;;;;;10.90;6.43;;;3.40;99.90;;;;;;5072228;28;20227;-81
2021/04/14 01:48:36;;;;;;;10.73;6.70;;;3.50;99.90;;;;;;5081259;28;20229;-80
2021/04/14 01:51:21;;;;;;;9.00;6.13;;;3.50;99.90;;;;;;5082572;28;20260;-78
2021/04/14 01:54:06;;;;;;;12.40;6.63;;;3.50;99.90;;;;;;5097401;28;20232;-81
2021/04/14 01:56:52;;;;;;;13.87;6.60;;;3.60;99.90;;;;;;5085591;28;20370;-77
2021/04/14 01:59:37;;;;;;;11.60;6.40;;;3.60;99.90;;;;;;5081229;28;20323;-81
2021/04/14 02:02:22;;;;;;;9.70;5.93;;;3.60;99.90;;;;;;5069750;28;20233;-80
2021/04/14 02:05:09;;;;;;;10.10;6.47;;;3.60;99.90;;;;;;5079105;28;20290;-81
2021/04/14 02:07:54;;;;;;;10.00;5.83;;;3.60;99.90;;;;;;5072347;28;20211;-82
2021/04/14 02:10:40;;;;;;;9.83;6.27;;;3.60;99.90;;;;;;5070681;28;20189;-82
2021/04/14 02:13:27;;;;;;;9.20;6.80;;;3.70;99.90;;;;;;5078210;28;20211;-80
2021/04/14 02:16:14;;;;;;;10.13;6.03;;;3.70;99.90;;;;;;5075838;28;20210;-83
2021/04/14 02:18:59;;;;;;;9.27;5.97;;;3.70;99.90;;;;;;5069235;28;20201;-82
2021/04/14 02:21:44;;;;;;;10.87;7.07;;;3.70;99.90;;;;;;5075870;28;20269;-82
2021/04/14 02:24:29;;;;;;;13.63;6.30;;;3.70;99.90;;;;;;5083572;28;20233;-82
2021/04/14 02:27:14;;;;;;;9.70;6.10;;;3.70;99.90;;;;;;5076778;28;20210;-82
2021/04/14 02:30:00;;;;;;;10.27;6.50;;;3.70;99.90;;;;;;5065231;28;20222;-82
2021/04/14 02:32:45;;;;;;;10.67;5.97;;;3.70;99.90;;;;;;5070672;28;20282;-82
2021/04/14 02:35:30;;;;;;;11.23;7.47;;;3.80;99.90;;;;;;5068128;28;20234;-80
2021/04/14 02:38:15;;;;;;;14.77;6.73;;;3.80;99.90;;;;;;5080929;28;20214;-82
2021/04/14 02:41:01;;;;;;;9.13;6.37;;;3.80;99.90;;;;;;5082936;28;20226;-82
2021/04/14 02:43:47;;;;;;;10.33;6.57;;;3.80;99.90;;;;;;5066881;28;20210;-81
2021/04/14 02:46:33;;;;;;;10.80;6.50;;;3.80;99.90;;;;;;5076683;28;20209;-84
2021/04/14 02:49:18;;;;;;;9.13;6.43;;;3.80;99.90;;;;;;5066853;28;20194;-81
2021/04/14 02:52:03;;;;;;;13.00;6.70;;;3.80;99.90;;;;;;5070924;28;20202;-82
2021/04/14 02:54:49;;;;;;;12.03;6.67;;;3.80;99.90;;;;;;5075843;28;20226;-82
2021/04/14 02:57:33;;;;;;;8.93;6.60;;;3.80;99.90;;;;;;5078016;28;20586;-82
2021/04/14 03:00:20;;;;;;;11.43;6.60;;;3.90;99.90;;;;;;5068949;28;20244;-82
2021/04/14 03:03:06;;;;;;;8.43;6.20;;;3.90;99.90;;;;;;5082750;28;20201;-83
2021/04/14 03:05:51;;;;;;;9.63;6.77;;;3.90;99.90;;;;;;5085674;28;20226;-81
2021/04/14 03:08:36;;;;;;;9.83;6.73;;;3.90;99.90;;;;;;5067862;28;20280;-83
2021/04/14 03:11:21;;;;;;;13.33;7.17;;;3.80;99.90;;;;;;5075590;28;20242;-82
2021/04/14 03:14:06;;;;;;;11.27;6.93;;;3.90;99.90;;;;;;5076853;28;20280;-83
2021/04/14 03:16:51;;;;;;;9.90;6.37;;;3.80;99.90;;;;;;5078849;28;20210;-81
2021/04/14 03:19:37;;;;;;;11.93;6.83;;;3.80;99.90;;;;;;5075005;28;20217;-82
2021/04/14 03:22:21;;;;;;;12.43;6.73;;;3.90;99.90;;;;;;5067310;28;20226;-80
2021/04/14 03:25:08;;;;;;;7.90;6.00;;;3.80;99.90;;;;;;5078393;28;20223;-79
2021/04/14 03:27:53;;;;;;;13.87;7.30;;;3.80;99.90;;;;;;5074419;28;20206;-80
2021/04/14 03:30:39;;;;;;;12.80;7.17;;;3.70;99.90;;;;;;5072726;28;20225;-82
2021/04/14 03:33:23;;;;;;;12.70;7.20;;;3.70;99.90;;;;;;5085656;28;20198;-81
2021/04/14 03:36:09;;;;;;;11.83;7.40;;;3.70;99.90;;;;;;5074582;28;20339;-81
2021/04/14 03:38:54;;;;;;;13.40;7.20;;;3.70;99.90;;;;;;5070551;28;20294;-81
2021/04/14 03:41:39;;;;;;;15.13;7.30;;;3.60;99.90;;;;;;5072654;28;20248;-82
2021/04/14 03:44:32;;;;;;;14.80;7.90;;;3.60;99.90;;;;;;5068216;28;20233;-83
2021/04/14 03:47:17;;;;;;;13.53;7.40;;;3.60;99.90;;;;;;5076160;28;20201;-80
2021/04/14 03:50:04;;;;;;;14.67;7.30;;;3.50;99.90;;;;;;5066193;28;20202;-82
2021/04/14 03:52:50;;;;;;;11.73;7.10;;;3.50;99.90;;;;;;5068299;28;20252;-82
2021/04/14 03:55:36;;;;;;;10.23;6.50;;;3.30;99.90;;;;;;5070698;28;20221;-80
2021/04/14 03:58:21;;;;;;;12.67;7.10;;;3.30;99.90;;;;;;5068929;28;20261;-81
2021/04/14 04:01:09;;;;;;;12.17;7.33;;;3.30;99.90;;;;;;5075628;28;20240;-81
2021/04/14 04:03:58;;;;;;;11.47;7.47;;;3.20;99.90;;;;;;5068079;28;20233;-82
2021/04/14 04:06:43;;;;;;;12.30;7.80;;;3.10;99.90;;;;;;5076168;28;20256;-81
2021/04/14 04:09:29;;;;;;;12.60;7.43;;;3.00;99.90;;;;;;5087204;28;20221;-81
2021/04/14 04:12:13;;;;;;;12.53;7.77;;;3.00;99.90;;;;;;5072662;28;20206;-82
2021/04/14 04:14:58;;;;;;;16.07;8.63;;;2.90;99.90;;;;;;5076184;28;20261;-80
2021/04/14 04:17:43;;;;;;;14.07;7.97;;;2.80;99.90;;;;;;5071793;28;20214;-83
2021/04/14 04:20:29;;;;;;;14.70;9.07;;;2.70;99.90;;;;;;5087336;28;20735;-80
2021/04/14 04:23:14;;;;;;;14.83;9.57;;;2.70;99.90;;;;;;5078045;28;20225;-81
2021/04/14 04:26:00;;;;;;;16.77;9.03;;;2.70;99.90;;;;;;5094020;28;20226;-81
2021/04/14 04:28:45;;;;;;;18.70;10.33;;;2.60;99.90;;;;;;5069850;28;20220;-82
2021/04/14 04:31:30;;;;;;;16.57;9.60;;;2.60;99.90;;;;;;5065555;28;20203;-81
2021/04/14 04:34:15;;;;;;;18.73;10.63;;;2.60;99.90;;;;;;5069374;28;20221;-82
2021/04/14 04:37:02;;;;;;;19.33;10.50;;;2.60;99.90;;;;;;5082503;28;20241;-78
2021/04/14 04:39:48;;;;;;;18.00;9.73;;;2.50;99.90;;;;;;5070184;28;20222;-80
2021/04/14 04:42:34;;;;;;;17.20;9.63;;;2.50;99.90;;;;;;5075496;28;20210;-81
2021/04/14 04:45:21;;;;;;;16.67;10.03;;;2.50;99.90;;;;;;5074316;28;20222;-80
2021/04/14 04:48:08;;;;;;;16.20;10.10;;;2.50;99.90;;;;;;5072479;28;20202;-81
2021/04/14 04:50:53;;;;;;;18.13;10.17;;;2.40;99.90;;;;;;5073928;28;20205;-82
2021/04/14 04:53:37;;;;;;;14.47;9.50;;;2.40;99.90;;;;;;5068371;28;20273;-82
2021/04/14 04:56:23;;;;;;;17.00;11.00;;;2.30;99.90;;;;;;5066842;28;20480;-81
2021/04/14 04:59:08;;;;;;;18.57;10.47;;;2.30;99.90;;;;;;5076786;28;20229;-78
2021/04/14 05:01:53;;;;;;;19.20;12.73;;;2.30;99.90;;;;;;5077451;28;20252;-80
2021/04/14 05:04:39;;;;;;;17.70;11.97;;;2.30;99.90;;;;;;5066282;28;20230;-83
2021/04/14 05:07:24;;;;;;;16.67;11.10;;;2.30;99.90;;;;;;5074301;28;20320;-81
2021/04/14 05:10:13;;;;;;;19.10;11.83;;;2.30;99.90;;;;;;5068542;28;20195;-81
2021/04/14 05:12:58;;;;;;;16.97;11.97;;;2.30;99.90;;;;;;5079431;28;20209;-83
2021/04/14 05:15:46;;;;;;;17.00;10.80;;;2.30;99.90;;;;;;5064106;28;20234;-81
2021/04/14 05:18:31;;;;;;;18.57;11.77;;;2.30;99.90;;;;;;5063181;28;20283;-80
2021/04/14 05:21:16;;;;;;;21.00;12.20;;;2.30;99.90;;;;;;5071770;28;20229;-80
2021/04/14 05:24:01;;;;;;;16.80;11.57;;;2.30;99.90;;;;;;5062092;28;20230;-80
2021/04/14 05:26:46;;;;;;;17.07;12.10;;;2.30;99.90;;;;;;5062345;28;20248;-79
2021/04/14 05:29:30;;;;;;;22.60;13.40;;;2.30;99.90;;;;;;5056566;28;20261;-80
2021/04/14 05:32:16;;;;;;;21.33;13.40;;;2.30;99.90;;;;;;5057738;28;20242;-80
2021/04/14 05:35:01;;;;;;;18.63;12.90;;;2.30;99.90;;;;;;5062573;28;20233;-80
2021/04/14 05:37:46;;;;;;;19.80;14.43;;;2.40;99.90;;;;;;5061915;28;20269;-80
2021/04/14 05:40:31;;;;;;;22.70;14.90;;;2.40;99.90;;;;;;5070839;28;20268;-79
2021/04/14 05:43:18;;;;;;;25.03;15.67;;;2.50;99.90;;;;;;5058043;28;20694;-79
2021/04/14 05:46:09;;;;;;;23.87;16.07;;;2.50;99.90;;;;;;5064815;28;20218;-80
2021/04/14 05:48:54;;;;;;;27.50;16.73;;;2.60;99.90;;;;;;5069699;28;20636;-81
2021/04/14 05:51:39;;;;;;;25.53;16.17;;;2.70;99.90;;;;;;5072174;28;20315;-81
2021/04/14 05:54:24;;;;;;;24.57;15.97;;;2.80;99.90;;;;;;5072169;28;20284;-81
2021/04/14 05:57:09;;;;;;;24.07;16.73;;;2.90;99.90;;;;;;5078165;28;20566;-81
2021/04/14 05:59:54;;;;;;;25.10;16.23;;;3.00;99.90;;;;;;5077385;28;20314;-78
2021/04/14 06:02:42;;;;;;;20.63;15.00;;;3.10;99.90;;;;;;5070915;28;20210;-79
2021/04/14 06:05:28;;;;;;;20.60;14.07;;;3.30;99.90;;;;;;5070697;28;20249;-81
2021/04/14 06:08:13;;;;;;;25.43;14.47;;;3.40;99.90;;;;;;5072257;28;20217;-81
2021/04/14 06:11:47;;;;;;;20.20;13.60;;;3.50;99.90;;;;;;5070990;28;20521;-81
2021/04/14 07:06:05;;;;;;;24.27;17.10;;;5.00;99.90;;;;;;5118881;27;20590;-81
2021/04/14 07:09:01;;;;;;;21.33;14.27;;;7.20;99.90;;;;;;5103262;28;20224;-82
2021/04/14 07:11:47;;;;;;;20.63;13.00;;;7.30;99.90;;;;;;5159767;22;20232;-78
2021/04/14 07:14:32;;;;;;;17.10;10.83;;;7.30;99.90;;;;;;5116987;28;20313;-78
2021/04/14 07:17:27;;;;;;;15.70;10.50;;;7.30;99.90;;;;;;5118448;27;20200;-78
2021/04/14 07:20:29;;;;;;;16.13;11.40;;;7.30;99.90;;;;;;5123156;27;20230;-78
2021/04/14 07:23:25;;;;;;;18.47;10.73;;;7.30;99.90;;;;;;5102257;28;20204;-76
2021/04/14 07:26:18;;;;;;;12.80;10.07;;;7.30;99.90;;;;;;5103642;28;20240;-77
2021/04/14 07:29:21;;;;;;;18.37;11.63;;;7.30;99.90;;;;;;5106869;28;20240;-77
2021/04/14 07:32:17;;;;;;;16.17;10.60;;;7.30;99.90;;;;;;5092826;28;20229;-78
2021/04/14 07:35:11;;;;;;;17.13;11.33;;;7.30;99.90;;;;;;5100228;28;20193;-77
2021/04/14 07:38:03;;;;;;;14.80;10.37;;;7.20;99.90;;;;;;5109557;28;20208;-78
2021/04/14 07:40:54;;;;;;;18.03;12.00;;;7.20;99.90;;;;;;5110256;28;20225;-78
2021/04/14 07:43:53;;;;;;;17.60;10.00;;;7.20;99.90;;;;;;5097679;28;20212;-79
2021/04/14 07:46:40;;;;;;;17.60;10.27;;;7.20;99.90;;;;;;5109040;28;20201;-78
2021/04/14 07:49:29;;;;;;;14.73;9.60;;;7.30;99.90;;;;;;5109087;28;20209;-77
2021/04/14 07:52:24;;;;;;;14.13;9.60;;;7.30;99.90;;;;;;5098207;28;20313;-78
2021/04/14 07:55:24;;;;;;;14.10;9.13;;;7.50;99.90;;;;;;5102912;28;20208;-77
2021/04/14 07:58:16;;;;;;;13.93;9.50;;;7.60;99.90;;;;;;5109385;28;20247;-79
2021/04/14 08:01:14;;;;;;;15.50;9.80;;;7.70;99.90;;;;;;5107201;28;20237;-77
2021/04/14 08:04:10;;;;;;;17.43;9.10;;;7.90;99.90;;;;;;5110865;28;20624;-78
2021/04/14 08:07:07;;;;;;;16.83;9.37;;;8.10;99.90;;;;;;5094344;28;20228;-78
2021/04/14 08:09:54;;;;;;;15.13;9.37;;;8.30;99.90;;;;;;5098162;28;20204;-79
2021/04/14 08:12:52;;;;;;;16.10;8.60;;;8.50;99.90;;;;;;5084356;28;20217;-76
2021/04/14 08:15:43;;;;;;;17.17;9.50;;;8.70;99.90;;;;;;5100202;28;20865;-76
2021/04/14 08:18:30;;;;;;;16.07;10.53;;;8.90;99.90;;;;;;5097553;28;20770;-78
2021/04/14 08:21:24;;;;;;;14.43;8.73;;;9.10;99.90;;;;;;5083957;28;20746;-78
2021/04/14 08:24:15;;;;;;;15.57;8.93;;;9.20;99.90;;;;;;5095112;28;20958;-77
2021/04/14 08:27:12;;;;;;;12.20;8.60;;;9.30;99.90;;;;;;5098184;28;20686;-78
2021/04/14 08:30:09;;;;;;;16.00;9.37;;;9.40;99.90;;;;;;5097288;28;20265;-79
2021/04/14 08:33:03;;;;;;;14.77;9.30;;;9.40;99.90;;;;;;5096060;28;20211;-78
2021/04/14 08:35:53;;;;;;;12.83;9.13;;;9.50;99.90;;;;;;5093554;28;20263;-78
2021/04/14 08:38:37;;;;;;;20.53;9.67;;;9.50;99.90;;;;;;5097215;28;20216;-78
2021/04/14 08:41:28;;;;;;;14.13;8.50;;;9.50;99.90;;;;;;5096371;28;20248;-78
2021/04/14 08:44:16;;;;;;;21.67;10.03;;;9.50;99.90;;;;;;5094421;28;20924;-78
2021/04/14 08:47:15;;;;;;;19.47;10.03;;;9.50;99.90;;;;;;5075401;28;20229;-78
2021/04/14 08:50:05;;;;;;;14.80;8.90;;;9.40;99.90;;;;;;5082703;28;20872;-79
2021/04/14 08:52:55;;;;;;;14.83;8.60;;;9.40;99.90;;;;;;5095722;28;20206;-79
2021/04/14 08:55:41;;;;;;;13.57;9.00;;;9.40;99.90;;;;;;5087604;28;20219;-79
2021/04/14 08:58:26;;;;;;;15.17;9.30;;;9.40;99.90;;;;;;5094234;28;20315;-79
2021/04/14 09:01:15;;;;;;;13.90;9.63;;;9.40;99.90;;;;;;5095185;28;20226;-79
2021/04/14 09:04:02;;;;;;;13.80;9.60;;;9.40;99.90;;;;;;5094571;28;20584;-78
2021/04/14 09:06:50;;;;;;;15.50;10.47;;;9.40;99.90;;;;;;5092344;28;20202;-77
2021/04/14 09:09:45;;;;;;;18.40;10.57;;;9.30;99.90;;;;;;5095065;28;20206;-79
2021/04/14 09:12:35;;;;;;;15.17;11.37;;;9.20;99.90;;;;;;5095364;28;20298;-79
2021/04/14 09:15:19;;;;;;;20.57;12.20;;;9.00;99.90;;;;;;5088917;28;20260;-79
2021/04/14 09:18:06;;;;;;;16.20;11.97;;;8.90;99.90;;;;;;5094460;28;20232;-78
2021/04/14 09:20:51;;;;;;;16.80;10.77;;;8.80;99.90;;;;;;5094225;28;20225;-79
2021/04/14 09:23:39;;;;;;;16.10;11.03;;;8.80;99.90;;;;;;5095441;28;20205;-79
2021/04/14 09:26:29;;;;;;;19.77;13.70;;;8.80;99.90;;;;;;5081416;28;20197;-77
2021/04/14 09:29:24;;;;;;;21.23;15.53;;;8.80;99.90;;;;;;5095212;28;20201;-78
2021/04/14 09:32:11;;;;;;;25.47;15.97;;;8.90;99.90;;;;;;5094959;28;20226;-79
2021/04/14 09:34:57;;;;;;;23.70;14.57;;;9.00;99.90;;;;;;5085739;28;20721;-78
2021/04/14 09:37:42;;;;;;;16.40;11.47;;;9.30;99.90;;;;;;5099171;28;20213;-79
2021/04/14 09:40:31;;;;;;;18.13;12.17;;;9.60;99.90;;;;;;5117166;28;20200;-78
2021/04/14 09:43:19;;;;;;;16.33;10.87;;;10.10;99.90;;;;;;5104992;28;20209;-80
2021/04/14 09:46:07;;;;;;;16.20;9.90;;;10.60;99.90;;;;;;5097121;28;20210;-78
2021/04/14 09:48:53;;;;;;;14.00;8.83;;;11.20;99.90;;;;;;5092781;28;20232;-78
2021/04/14 09:51:39;;;;;;;14.23;8.93;;;11.90;99.90;;;;;;5093325;28;20237;-78
2021/04/14 09:54:30;;;;;;;12.10;8.23;;;12.50;99.90;;;;;;5084502;28;20234;-78
2021/04/14 09:57:32;;;;;;;13.43;8.73;;;13.20;99.90;;;;;;5084575;28;20278;-78
2021/04/14 10:00:20;;;;;;;16.17;9.60;;;13.70;99.90;;;;;;5093396;28;20321;-78
2021/04/14 10:03:11;;;;;;;16.53;10.43;;;14.20;99.90;;;;;;5091892;28;20202;-78
2021/04/14 10:06:04;;;;;;;13.23;9.13;;;14.50;99.90;;;;;;5093214;28;20693;-78
2021/04/14 10:08:55;;;;;;;14.97;9.40;;;14.80;99.90;;;;;;5094700;28;20206;-78
2021/04/14 10:11:51;;;;;;;16.90;10.50;;;15.00;99.90;;;;;;5100890;28;20247;-77
2021/04/14 10:14:43;;;;;;;13.33;8.67;;;15.40;99.90;;;;;;5085528;28;20199;-79
2021/04/14 10:17:30;;;;;;;14.77;9.93;;;16.40;99.90;;;;;;5096309;28;20217;-78
2021/04/14 10:20:20;;;;;;;12.53;9.60;;;16.50;99.90;;;;;;5094292;28;20227;-79
2021/04/14 10:23:11;;;;;;;13.77;9.43;;;17.00;99.90;;;;;;5101552;28;20215;-80
2021/04/14 10:26:03;;;;;;;12.83;8.60;;;17.40;99.90;;;;;;5105864;28;20209;-78
2021/04/14 10:28:49;;;;;;;11.80;7.87;;;17.80;99.90;;;;;;5096381;28;20976;-80
2021/04/14 10:31:36;;;;;;;12.63;8.33;;;18.40;99.90;;;;;;5082680;28;20275;-81
2021/04/14 10:34:28;;;;;;;11.47;7.83;;;19.00;99.90;;;;;;5092884;28;20700;-81
2021/04/14 10:37:15;;;;;;;8.77;7.03;;;19.70;99.90;;;;;;5093774;28;20258;-81
2021/04/14 10:40:14;;;;;;;11.43;8.43;;;20.40;93.10;;;;;;5087266;28;20204;-81
2021/04/14 10:43:11;;;;;;;12.00;7.30;;;20.90;93.20;;;;;;5093917;28;20255;-81
2021/04/14 10:46:00;;;;;;;11.97;7.57;;;21.20;90.60;;;;;;5092300;28;20302;-80
2021/04/14 10:48:48;;;;;;;10.27;7.43;;;21.30;83.40;;;;;;5093547;28;20213;-80
2021/04/14 10:51:38;;;;;;;10.27;7.50;;;21.20;82.20;;;;;;5092440;28;20236;-80
2021/04/14 10:54:27;;;;;;;11.20;7.03;;;21.10;77.90;;;;;;5093888;28;20284;-79
2021/04/14 10:57:18;;;;;;;9.37;7.27;;;20.90;74.50;;;;;;5086608;28;20228;-80
2021/04/14 11:00:05;;;;;;;10.37;7.73;;;20.50;73.50;;;;;;5096981;28;20204;-79
2021/04/14 11:02:51;;;;;;;10.67;7.20;;;20.20;72.60;;;;;;5096896;28;20528;-79
2021/04/14 11:05:45;;;;;;;11.77;8.57;;;19.90;70.90;;;;;;5093920;28;20598;-80
2021/04/14 11:08:30;;;;;;;11.80;9.63;;;19.50;73.30;;;;;;5094240;28;20252;-79
2021/04/14 11:11:15;;;;;;;11.37;8.80;;;19.20;77.20;;;;;;5089521;28;20231;-80
2021/04/14 11:14:00;;;;;;;13.83;9.40;;;18.80;78.20;;;;;;5095754;28;20202;-79
2021/04/14 11:16:47;;;;;;;12.77;9.20;;;18.50;77.40;;;;;;5094593;28;20212;-79
2021/04/14 11:19:37;;;;;;;10.83;8.60;;;18.20;77.00;;;;;;5091055;28;20208;-80
2021/04/14 11:22:24;;;;;;;10.63;8.43;;;18.00;77.90;;;;;;5092357;28;20586;-80
2021/04/14 11:25:10;;;;;;;11.87;9.10;;;17.70;78.90;;;;;;5086596;28;20225;-79
2021/04/14 11:28:03;;;;;;;11.30;7.90;;;17.50;78.70;;;;;;5092814;28;20198;-79
2021/04/14 11:30:52;;;;;;;10.90;8.13;;;17.30;79.00;;;;;;5094586;28;20225;-79
2021/04/14 11:33:39;;;;;;;12.53;8.87;;;17.10;74.20;;;;;;5095149;28;20225;-79
2021/04/14 11:36:31;;;;;;;12.03;8.73;;;17.00;75.10;;;;;;5079676;28;20198;-79
2021/04/14 11:39:18;;;;;;;12.77;9.00;;;16.80;76.50;;;;;;5090395;28;20294;-79
2021/04/14 11:42:06;;;;;;;13.43;8.90;;;16.70;77.30;;;;;;5094298;28;20710;-79
2021/04/14 11:44:53;;;;;;;14.57;9.53;;;16.60;79.00;;;;;;5095467;28;20213;-78
2021/04/14 11:47:38;;;;;;;12.30;9.33;;;16.50;77.10;;;;;;5085302;28;20206;-78
2021/04/14 11:50:33;;;;;;;10.87;7.93;;;16.40;77.60;;;;;;5097605;28;20218;-78
2021/04/14 11:53:21;;;;;;;12.23;8.17;;;16.40;75.80;;;;;;5099760;28;20224;-79
2021/04/14 11:56:34;;;;;;;12.27;9.03;;;16.40;73.30;;;;;;5098216;28;20698;-78
2021/04/14 11:59:23;;;;;;;12.67;8.67;;;16.30;73.80;;;;;;5099739;28;20337;-78
2021/04/14 12:02:21;;;;;;;10.87;7.57;;;16.30;76.50;;;;;;5087888;28;20228;-79
2021/04/14 12:05:09;;;;;;;12.83;8.63;;;16.30;74.20;;;;;;5094575;28;20216;-79
2021/04/14 12:07:54;;;;;;;11.30;7.93;;;16.50;74.70;;;;;;5092157;28;20205;-78
2021/04/14 12:10:39;;;;;;;10.60;7.83;;;16.80;70.60;;;;;;5091736;28;21008;-80
2021/04/14 12:13:24;;;;;;;9.13;7.77;;;17.40;69.70;;;;;;5091831;28;20259;-79
2021/04/14 12:16:10;;;;;;;8.90;6.80;;;18.10;66.30;;;;;;5085219;28;20220;-82
2021/04/14 12:18:54;;;;;;;10.03;7.50;;;18.70;63.00;;;;;;5096874;28;20225;-78
2021/04/14 12:21:39;;;;;;;9.57;6.97;;;19.20;62.20;;;;;;5098694;28;20225;-79
2021/04/14 12:24:24;;;;;;;7.60;4.73;;;19.60;63.00;;;;;;5111469;28;20202;-77
2021/04/14 12:27:09;;;;;;;8.27;4.80;;;19.70;62.20;;;;;;5114338;28;20257;-79
2021/04/14 12:29:55;;;;;;;8.43;4.67;;;19.70;64.70;;;;;;5100358;28;20209;-80
2021/04/14 12:32:39;;;;;;;8.67;4.70;;;20.00;58.60;;;;;;5099938;28;20254;-80
2021/04/14 12:35:26;;;;;;;7.93;5.27;;;20.60;65.00;;;;;;5099108;28;20215;-80
2021/04/14 12:38:11;;;;;;;8.33;5.30;;;21.00;66.10;;;;;;5088124;28;20248;-80
2021/04/14 12:40:56;;;;;;;5.67;4.50;;;21.80;66.50;;;;;;5098720;28;20723;-80
2021/04/14 12:43:44;;;;;;;7.93;5.17;;;22.50;62.50;;;;;;5094217;28;20214;-80
2021/04/14 12:46:31;;;;;;;7.17;4.17;;;23.20;58.70;;;;;;5104687;28;20213;-81
2021/04/14 12:49:17;;;;;;;7.70;4.87;;;23.90;60.70;;;;;;5100513;28;20622;-81
2021/04/14 12:52:03;;;;;;;7.27;5.10;;;24.60;54.60;;;;;;5081470;28;20242;-81
2021/04/14 12:54:49;;;;;;;6.13;4.57;;;25.20;56.00;;;;;;5096178;28;20193;-81
2021/04/14 12:57:41;;;;;;;9.67;5.20;;;25.80;55.40;;;;;;5098805;28;20208;-81
2021/04/14 13:00:28;;;;;;;6.53;4.63;;;26.30;51.60;;;;;;5085691;28;20200;-81
2021/04/14 13:03:25;;;;;;;8.15;5.47;;;26.90;50.90;;;;;;5097144;28;20235;-82
2021/04/14 13:06:17;;;;;;;7.32;4.07;;;27.60;51.10;;;;;;5095667;28;20252;-81
2021/04/14 13:09:04;;;;;;;6.60;4.47;;;28.20;51.30;;;;;;5087008;28;20345;-79
2021/04/14 13:11:55;;;;;;;5.55;4.75;;;28.80;45.80;;;;;;5096490;28;20312;-81
2021/04/14 13:14:40;;;;;;;6.38;5.00;;;29.30;47.30;;;;;;5097580;22;20595;-77
2021/04/14 13:17:27;;;;;;;6.65;5.45;;;29.70;44.40;;;;;;5072280;28;20281;-76
2021/04/14 13:20:14;;;;;;;7.30;5.63;;;29.80;42.50;;;;;;5067058;28;20701;-78
2021/04/14 13:23:09;;;;;;;7.20;5.53;;;29.80;43.90;;;;;;5070045;28;20213;-76
2021/04/14 13:26:01;;;;;;;8.00;5.78;;;29.40;43.10;;;;;;5050963;28;20232;-77
2021/04/14 13:28:52;;;;;;;6.28;5.50;;;29.20;41.80;;;;;;5052221;28;20637;-76
2021/04/14 13:31:44;;;;;;;7.22;6.10;;;28.70;44.30;;;;;;5050418;28;20206;-76
2021/04/14 13:34:34;;;;;;;6.68;5.63;;;28.30;42.20;;;;;;5050650;28;20290;-76
2021/04/14 13:37:24;;;;;;;5.80;5.20;;;27.90;42.30;;;;;;5051908;28;20205;-76
2021/04/14 13:40:15;;;;;;;4.93;3.92;;;27.40;43.10;;;;;;5051318;28;20212;-76
2021/04/14 13:43:02;;;;;;;6.33;4.50;;;26.80;43.70;;;;;;5037376;28;20213;-76
2021/04/14 13:45:51;;;;;;;4.97;4.10;;;26.20;42.60;;;;;;5049469;28;20264;-76
2021/04/14 13:48:49;;;;;;;7.57;4.37;;;25.70;45.70;;;;;;5041561;28;20225;-75
2021/04/14 13:51:39;;;;;;;5.77;4.33;;;25.30;47.60;;;;;;5038532;28;20221;-75
2021/04/14 13:54:25;;;;;;;5.47;4.07;;;25.10;48.30;;;;;;5038634;28;20238;-77
2021/04/14 13:57:20;;;;;;;5.13;4.47;;;25.10;46.70;;;;;;5042967;28;20239;-76
2021/04/14 14:00:08;;;;;;;8.27;4.97;;;25.20;47.30;;;;;;5047874;28;20206;-77
2021/04/14 14:02:55;;;;;;;8.90;6.13;;;25.20;47.40;;;;;;5048460;28;20701;-77
2021/04/14 14:05:41;;;;;;;6.67;5.40;;;25.10;46.70;;;;;;5047840;28;20734;-76
2021/04/14 14:08:31;;;;;;;6.50;5.60;;;25.10;47.60;;;;;;5048446;28;20210;-77
2021/04/14 14:11:21;;;;;;;7.60;5.40;;;25.20;49.10;;;;;;5042194;28;20727;-76
2021/04/14 14:14:08;;;;;;;6.17;4.67;;;25.40;48.30;;;;;;5050351;28;20595;-77
2021/04/14 14:16:59;;;;;;;4.00;3.50;;;25.60;48.20;;;;;;5051394;28;20209;-78
2021/04/14 14:19:49;;;;;;;6.80;2.13;;;25.90;46.70;;;;;;5047342;28;20209;-77
2021/04/14 14:22:35;;;;;;;4.07;1.70;;;26.10;46.10;;;;;;5036526;28;20282;-77
2021/04/14 14:25:20;;;;;;;4.33;2.20;;;26.30;45.00;;;;;;5050758;28;20827;-76
2021/04/14 14:28:06;;;;;;;4.43;2.00;;;26.30;45.10;;;;;;5039426;28;20248;-77
2021/04/14 14:30:52;;;;;;;3.17;1.50;;;26.20;45.20;;;;;;5038074;28;20200;-75
2021/04/14 14:33:39;;;;;;;3.07;1.60;;;25.90;44.30;;;;;;5051349;28;20252;-76
2021/04/14 14:36:31;;;;;;;3.77;1.63;;;25.50;45.30;;;;;;5048953;28;20207;-78
2021/04/14 14:39:24;;;;;;;3.40;1.53;;;25.20;44.80;;;;;;5051606;28;20242;-75
2021/04/14 14:42:12;;;;;;;2.27;1.20;;;25.00;47.20;;;;;;5051304;28;20251;-75
2021/04/14 14:45:04;;;;;;;2.40;1.10;;;25.00;45.80;;;;;;5048928;28;20223;-75
2021/04/14 14:47:53;;;;;;;3.53;1.10;;;25.00;47.70;;;;;;5048989;28;20201;-75
2021/04/14 14:50:41;;;;;;;4.00;1.00;;;25.20;45.80;;;;;;5043116;28;20201;-75
2021/04/14 14:53:26;;;;;;;0.80;0.77;;;25.40;46.00;;;;;;5046615;28;20261;-76
2021/04/14 14:56:23;;;;;;;1.52;0.80;;;25.70;46.50;;;;;;5046652;28;20237;-76
2021/04/14 14:59:16;;;;;;;2.10;1.10;;;26.10;43.80;;;;;;5051080;28;20274;-75
2021/04/14 15:02:03;;;;;;;3.40;1.33;;;26.50;44.60;;;;;;5045773;28;20281;-77
2021/04/14 15:04:48;;;;;;;3.33;1.30;;;26.50;43.30;;;;;;5045765;28;20227;-77
2021/04/14 15:07:37;;;;;;;2.67;0.80;;;26.40;44.00;;;;;;5044778;28;20300;-76
2021/04/14 15:10:27;;;;;;;2.25;1.15;;;26.20;45.50;;;;;;5044354;28;20690;-77
2021/04/14 15:13:11;;;;;;;2.40;1.20;;;25.90;44.70;;;;;;5052668;28;20256;-76
2021/04/14 15:15:56;;;;;;;2.47;1.00;;;25.50;46.20;;;;;;5040038;28;20228;-76
2021/04/14 15:18:43;;;;;;;2.37;1.00;;;25.10;46.60;;;;;;5054501;28;20216;-77
2021/04/14 15:21:28;;;;;;;4.53;0.97;;;24.60;46.50;;;;;;5056705;28;20211;-77